Terminal Aerodrome Forecast
Issued by NWS

Current Version | Previous Version | Text Only | Print | Product List | Glossary Off
Versions: 1 2 3 4 5 6 7 8 9 10 11 12 13 14 15

000
FTUS41 KPBZ 161721
TAFHLG
TAF
KHLG 161721Z 1618/1718 05004KT P6SM SCT060
     FM170800 12003KT P6SM BKN060
     FM171600 16004KT P6SM VCTS BKN060CB=

USA.gov is the U.S. government's official web portal to all federal, state and local government web resources and services.